Zoutleeuw, Belgium
Current Conditions -  °F | °C
As of 11:25 AM on Saturday 25 Oct 2014 (Local Time) from EBDT Reporting Station
Overcast Overcast  
Wind Chill: 54°   Ceiling: 300
Heat Index: 54°   Visibility: 2.5mi
Dew Point: 54°   Wind: 6mph
Humidity: 100%   Direction: 210°SSW
Pressure: 30.09"   Gusts: NA
Location:  50.83°N, 5.1°E
Report Text: EBDT 250925Z AUTO 21005KT 4100 BKN003/// OVC005/// 12/12 Q1019 YLO
Loading
Personal Weather Stations






























Interactive Weather Map
Tropical Storm Tracking
New forecast layout! Learn more

10-Day Weather Forecast

Advertisements
Track Severe Weather on mobile